Last 24 Hours

Coyote Canyon

10 Minute Data | America/Los_Angeles
as of 5/7/26 10:41 PM PDT
Date & Time Temp (°F) Dew Pt (°F) RH (%) Wind Spd (mph) Wind Dir (°) Wind Gust (mph) Wind Gst Dir (°) Daily Max Temp (°F) Daily Min Temp (°F)
5/7/26 - 2240 63.0 41.9 46 18.4 WNW | 302 23.7 WNW | 298 81.3 53.7
5/7/26 - 2230 62.8 43.0 48 17.5 WNW | 302 22.9 WNW | 294 81.3 53.7
5/7/26 - 2220 63.1 43.8 49 19.1 WNW | 302 24.8 WNW | 301 81.3 53.7
5/7/26 - 2210 63.4 44.1 49 19.0 WNW | 301 24.5 WNW | 296 81.3 53.7
5/7/26 - 2200 62.9 46.1 54 18.6 WNW | 300 25.1 NW | 306 81.3 53.7
5/7/26 - 2150 63.0 47.3 56 21.2 NW | 304 26.7 WNW | 297 81.3 53.7
5/7/26 - 2140 63.0 47.4 57 21.9 NW | 305 28.0 WNW | 294 81.3 53.7
5/7/26 - 2130 62.9 46.5 55 18.2 NW | 306 25.0 WNW | 299 81.3 53.7
5/7/26 - 2120 63.1 45.0 51 16.4 WNW | 302 21.9 WNW | 295 81.3 53.7
5/7/26 - 2110 63.7 44.8 50 16.0 NW | 304 21.4 WNW | 300 81.3 53.7
5/7/26 - 2100 64.5 45.1 49 18.5 NW | 304 25.1 WNW | 302 81.3 53.7
5/7/26 - 2050 64.5 45.4 50 16.9 NW | 306 23.8 NW | 308 81.3 53.7
5/7/26 - 2040 65.1 44.9 48 18.1 WNW | 299 22.9 WNW | 296 81.3 53.7
5/7/26 - 2030 66.0 44.7 46 17.1 WNW | 294 25.4 WNW | 290 81.3 53.7
5/7/26 - 2020 66.9 44.7 45 17.8 WNW | 299 24.0 WNW | 295 81.3 53.7
5/7/26 - 2010 67.1 45.0 45 18.7 WNW | 293 28.2 W | 278 81.3 53.7
5/7/26 - 2000 67.9 44.8 43 19.1 WNW | 288 27.1 WNW | 288 81.3 53.7
5/7/26 - 1950 68.3 45.9 45 19.2 WNW | 296 26.3 W | 281 81.3 53.7
5/7/26 - 1940 69.2 45.3 42 21.2 WNW | 301 29.8 WNW | 291 81.3 53.7
5/7/26 - 1930 69.8 44.8 40 23.9 WNW | 298 31.3 WNW | 295 81.3 53.7
5/7/26 - 1920 70.3 43.9 38 24.0 WNW | 291 31.6 WNW | 288 81.3 53.7
5/7/26 - 1910 70.8 44.3 38 25.4 WNW | 288 32.4 WNW | 298 81.3 53.7
5/7/26 - 1900 71.3 45.8 40 25.0 WNW | 292 34.1 WNW | 296 81.3 53.7
5/7/26 - 1850 71.7 47.0 41 25.7 WNW | 290 33.0 WNW | 292 81.3 53.7
5/7/26 - 1840 72.1 47.1 41 25.5 WNW | 292 34.3 WNW | 286 81.3 53.7
5/7/26 - 1830 72.4 48.1 42 27.5 WNW | 291 35.4 WNW | 296 81.3 53.7
5/7/26 - 1820 72.7 49.9 45 24.4 W | 277 34.6 W | 272 81.3 53.7
5/7/26 - 1810 73.1 49.6 43 23.5 W | 281 33.7 W | 280 81.3 53.7
5/7/26 - 1800 73.8 49.4 42 24.4 WNW | 283 34.8 W | 270 81.3 53.7
5/7/26 - 1750 74.0 49.6 42 25.0 W | 274 36.3 W | 261 81.3 53.7
5/7/26 - 1740 74.3 50.9 44 24.6 W | 270 33.5 W | 270 81.3 53.7
5/7/26 - 1730 75.0 48.9 40 23.3 W | 278 32.2 W | 267 81.3 53.7
5/7/26 - 1720 75.6 44.1 33 23.6 W | 278 35.7 W | 259 81.3 53.7
5/7/26 - 1710 75.5 45.2 34 24.2 W | 279 34.3 W | 278 81.3 53.7
5/7/26 - 1700 76.2 45.1 33 24.1 W | 273 32.2 W | 270 81.3 53.7
5/7/26 - 1650 76.5 44.1 32 23.2 W | 276 31.4 W | 268 81.3 53.7
5/7/26 - 1640 76.9 44.4 31 22.4 WNW | 282 32.3 WNW | 284 81.3 53.7
5/7/26 - 1630 76.9 42.7 30 22.4 W | 271 33.2 W | 264 81.3 53.7
5/7/26 - 1620 77.2 42.1 29 22.5 W | 271 31.6 W | 278 81.3 53.7
5/7/26 - 1610 77.9 42.1 28 19.3 W | 275 30.0 W | 270 81.3 53.7
5/7/26 - 1600 77.8 42.1 28 18.5 W | 270 29.2 WSW | 255 81.3 53.7
5/7/26 - 1550 77.9 42.3 28 20.0 W | 268 30.8 WSW | 258 81.3 53.7
5/7/26 - 1540 78.0 42.2 28 17.6 W | 271 29.2 W | 271 81.3 53.7
5/7/26 - 1530 77.9 41.4 27 20.1 WSW | 252 30.2 WSW | 245 81.3 53.7
5/7/26 - 1520 78.3 41.1 27 15.7 WSW | 252 25.6 SW | 221 81.3 53.7
5/7/26 - 1510 77.8 39.9 26 13.6 W | 266 27.2 W | 278 81.3 53.7
5/7/26 - 1500 77.5 40.6 27 14.9 WNW | 282 30.0 WNW | 293 81.3 53.7
5/7/26 - 1450 77.6 40.2 26 17.0 W | 281 29.2 WNW | 283 81.3 53.7
5/7/26 - 1440 77.4 41.0 27 17.7 W | 280 27.9 WNW | 282 81.3 53.7
5/7/26 - 1430 77.7 41.4 27 16.5 WNW | 287 25.8 WNW | 293 81.3 53.7
5/7/26 - 1420 77.6 40.9 27 16.1 W | 261 26.3 WSW | 250 81.3 53.7
5/7/26 - 1410 78.8 41.2 26 15.9 W | 262 25.4 WSW | 256 81.3 53.7
5/7/26 - 1400 78.6 40.8 26 14.8 WSW | 256 26.2 SW | 234 81.3 53.7
5/7/26 - 1350 78.0 40.6 26 16.5 W | 266 23.3 W | 264 81.3 53.7
5/7/26 - 1340 77.5 41.6 28 15.7 W | 266 22.8 W | 266 81.3 53.7
5/7/26 - 1330 78.6 38.2 24 12.0 NW | 314 21.2 NW | 313 81.3 53.7
5/7/26 - 1320 79.4 26.1 14 7.9 NNW | 337 18.4 N | 0 81.3 53.7
5/7/26 - 1310 78.5 26.2 14 8.1 N | 3 16.6 NNE | 12 81.3 53.7
5/7/26 - 1300 77.9 26.6 15 10.8 N | 9 18.2 NNE | 15 81.3 53.7
5/7/26 - 1250 78.5 27.7 15 9.7 NE | 53 21.1 NE | 51 81.3 53.7
5/7/26 - 1240 78.2 26.7 15 12.5 NNE | 22 21.7 NE | 46 81.3 53.7
5/7/26 - 1230 78.3 26.5 15 7.8 NNE | 16 16.1 NNW | 331 81.3 53.7
5/7/26 - 1220 79.7 28.4 15 8.5 NE | 47 18.4 NNE | 31 81.3 53.7
5/7/26 - 1210 78.5 28.6 16 8.9 ENE | 69 20.4 NE | 55 79.9 53.7
5/7/26 - 1200 78.0 27.8 16 9.5 ENE | 62 16.6 NNE | 13 79.9 53.7
5/7/26 - 1150 77.9 27.8 16 13.3 ENE | 59 23.1 ENE | 78 79.9 53.7
5/7/26 - 1140 78.7 29.6 17 5.3 E | 97 18.9 E | 100 79.9 53.7
5/7/26 - 1130 77.1 24.4 14 11.6 N | 8 21.0 NE | 37 78.0 53.7
5/7/26 - 1120 76.4 23.5 14 13.6 N | 8 21.7 NNE | 18 77.6 53.7
5/7/26 - 1110 76.5 24.8 15 11.2 NE | 43 21.4 NE | 39 77.6 53.7
5/7/26 - 1100 76.6 26.3 16 13.3 NE | 43 21.0 NE | 39 77.6 53.7
5/7/26 - 1050 76.4 27.5 16 11.3 NNE | 26 20.8 NNE | 16 77.6 53.7
5/7/26 - 1040 76.8 27.5 16 10.6 NE | 44 20.2 NE | 36 77.6 53.7
5/7/26 - 1030 75.7 28.0 17 11.3 N | 10 19.5 NNE | 17 76.5 53.7
5/7/26 - 1020 75.7 28.4 17 11.1 NNE | 16 19.5 NNE | 25 76.5 53.7
5/7/26 - 1010 75.6 28.8 18 12.4 NNE | 18 23.1 NNE | 16 76.5 53.7
5/7/26 - 1000 75.8 28.5 17 11.0 NE | 52 19.3 ENE | 60 76.5 53.7
5/7/26 - 0950 74.8 28.2 18 12.3 NE | 42 20.0 NNE | 28 75.4 53.7
5/7/26 - 0940 74.6 31.6 21 14.8 NNE | 18 21.3 NNE | 16 75.2 53.7
5/7/26 - 0930 74.6 31.4 20 13.2 NNE | 13 18.2 NNE | 32 74.9 53.7
5/7/26 - 0920 74.4 31.0 20 11.6 N | 5 19.0 N | 1 74.9 53.7
5/7/26 - 0910 73.8 32.8 22 6.0 NNW | 341 17.4 NNE | 16 74.2 53.7
5/7/26 - 0900 72.9 33.4 23 4.0 NW | 306 9.4 NW | 309 73.4 53.7
5/7/26 - 0850 72.1 34.6 25 4.8 WSW | 247 10.7 SW | 215 72.9 53.7
5/7/26 - 0840 70.9 35.9 28 5.1 WSW | 255 8.1 WSW | 257 71.4 53.7
5/7/26 - 0830 69.0 37.2 31 7.8 WNW | 285 10.2 NW | 305 69.8 53.7
5/7/26 - 0820 67.9 38.5 34 6.7 WNW | 297 9.5 WNW | 296 69.8 53.7
5/7/26 - 0810 68.2 36.6 31 6.4 WNW | 282 10.2 NW | 318 69.8 53.7
5/7/26 - 0800 68.6 34.8 29 4.2 W | 274 9.4 WNW | 296 69.8 53.7
5/7/26 - 0750 67.1 33.8 29 4.9 WNW | 287 10.2 WNW | 292 68.6 53.7
5/7/26 - 0740 66.1 33.6 30 8.2 NW | 308 13.9 NW | 307 67.7 53.7
5/7/26 - 0730 64.9 33.5 31 8.6 WNW | 300 11.8 NW | 304 66.3 53.7
5/7/26 - 0720 64.6 33.5 31 6.8 NW | 310 11.0 NNW | 327 66.3 53.7
5/7/26 - 0710 65.4 32.8 30 6.1 NW | 310 10.8 N | 0 66.3 53.7
5/7/26 - 0700 65.2 32.7 30 6.7 NW | 326 12.0 N | 2 66.3 53.7
5/7/26 - 0650 63.7 32.8 31 8.3 NW | 313 11.3 NW | 309 65.7 53.7
5/7/26 - 0640 63.2 32.9 32 11.1 NW | 310 13.9 NW | 306 64.4 53.7
5/7/26 - 0630 62.1 33.1 34 10.4 WNW | 303 12.6 NW | 317 62.8 53.7
5/7/26 - 0620 60.3 33.8 37 11.3 WNW | 296 13.0 WNW | 286 61.4 53.7
5/7/26 - 0610 58.4 35.2 42 11.0 WNW | 297 13.2 WNW | 297 60.4 53.7
5/7/26 - 0600 57.9 36.9 45 11.2 WNW | 295 14.3 WNW | 287 60.4 53.7
5/7/26 - 0550 58.3 37.6 46 11.2 WNW | 290 13.7 WNW | 290 60.4 53.7
5/7/26 - 0540 58.3 37.7 46 9.5 WNW | 298 12.1 WNW | 294 60.4 53.7
5/7/26 - 0530 58.2 38.1 47 10.6 WNW | 298 13.6 WNW | 294 60.4 53.7
5/7/26 - 0520 57.9 38.5 48 12.5 WNW | 294 15.6 WNW | 291 60.4 53.7
5/7/26 - 0510 59.0 38.7 47 13.1 WNW | 290 16.2 WNW | 292 60.4 53.7
5/7/26 - 0500 60.1 38.1 44 13.7 WNW | 287 17.4 WNW | 288 60.4 53.7
5/7/26 - 0450 60.0 37.4 43 14.4 WNW | 293 18.6 WNW | 295 60.3 53.7
5/7/26 - 0440 59.5 37.2 43 15.9 WNW | 301 22.4 WNW | 291 60.0 53.7
5/7/26 - 0430 58.8 37.3 45 19.3 WNW | 297 23.4 WNW | 293 60.0 53.7
5/7/26 - 0420 56.7 39.2 52 16.7 NW | 306 20.2 NW | 304 60.0 53.7
5/7/26 - 0410 57.0 39.8 52 16.0 NW | 304 21.2 WNW | 292 60.0 53.7
5/7/26 - 0400 57.4 39.6 51 17.2 NW | 304 21.3 WNW | 293 60.0 53.7
5/7/26 - 0350 56.5 38.7 51 17.6 WNW | 298 20.2 WNW | 294 60.0 53.7
5/7/26 - 0340 57.7 38.2 48 15.6 WNW | 301 18.8 WNW | 297 60.0 53.7
5/7/26 - 0330 55.4 39.8 56 15.9 WNW | 302 18.8 NW | 304 60.0 53.7
5/7/26 - 0320 56.8 39.2 52 15.1 WNW | 300 18.0 WNW | 296 60.0 53.7
5/7/26 - 0310 57.1 40.4 54 17.3 WNW | 302 19.6 WNW | 300 60.0 53.7
5/7/26 - 0300 57.0 40.2 53 18.0 WNW | 301 20.8 WNW | 301 60.0 53.7
5/7/26 - 0250 56.3 41.1 57 17.5 NW | 304 21.5 WNW | 296 60.0 53.7
5/7/26 - 0240 56.2 40.9 56 16.7 WNW | 298 20.5 WNW | 297 60.0 53.7
5/7/26 - 0230 58.4 40.0 50 16.4 WNW | 298 19.3 WNW | 298 60.0 53.7
5/7/26 - 0220 59.4 39.3 47 15.1 WNW | 302 18.0 WNW | 298 60.0 53.7
5/7/26 - 0210 59.2 39.1 47 12.9 NW | 314 14.9 NW | 311 60.0 53.7
5/7/26 - 0200 57.9 41.3 54 14.3 NW | 309 17.7 NW | 311 59.0 53.7
5/7/26 - 0150 57.8 42.0 56 16.4 WNW | 302 20.2 WNW | 303 59.0 53.7
5/7/26 - 0140 58.3 42.1 55 16.6 NW | 306 20.1 WNW | 303 59.0 53.7
5/7/26 - 0130 56.5 42.8 60 16.2 WNW | 302 18.8 WNW | 299 58.0 53.7
5/7/26 - 0120 54.6 43.6 66 17.0 WNW | 298 20.2 WNW | 292 56.3 53.7
5/7/26 - 0110 55.5 42.9 62 14.6 WNW | 300 17.8 WNW | 302 56.3 54.1
5/7/26 - 0100 57.5 42.1 56 14.7 NW | 306 19.2 WNW | 298 71.3 40.6
5/7/26 - 0050 57.8 42.0 56 14.1 NW | 315 17.2 NW | 313 71.3 40.6
5/7/26 - 0040 57.8 42.3 56 16.1 NW | 316 20.0 NW | 313 71.3 40.6
5/7/26 - 0030 58.4 42.4 55 16.5 NW | 317 20.2 NW | 313 71.3 40.6
5/7/26 - 0020 58.5 42.8 56 16.7 NW | 312 21.4 NW | 310 71.3 40.6
5/7/26 - 0010 58.1 43.7 59 16.1 NW | 323 19.3 NW | 324 71.3 40.6
5/7/26 - 0000 56.6 46.6 69 19.7 NW | 317 24.0 NW | 316 71.3 40.6
5/6/26 - 2350 56.5 48.0 73 21.0 NW | 315 23.9 NW | 313 71.3 40.6
5/6/26 - 2340 55.9 48.6 76 20.5 NW | 315 24.2 NW | 316 71.3 40.6
5/6/26 - 2330 55.6 48.8 78 20.0 NW | 319 23.4 NW | 318 71.3 40.6
5/6/26 - 2320 55.0 49.0 80 18.7 NW | 314 21.3 NW | 315 71.3 40.6
5/6/26 - 2310 54.9 49.1 80 17.6 NW | 309 21.0 WNW | 301 71.3 40.6
5/6/26 - 2300 54.4 49.0 82 18.1 NW | 307 21.9 NW | 309 71.3 40.6
5/6/26 - 2250 53.9 48.7 82 17.1 NW | 305 20.7 NW | 316 71.3 40.6
5/6/26 - 2240 54.5 48.8 81 16.1 NW | 305 21.8 NW | 305 71.3 40.6
Max 79.7 50.9 82 27.5 - 36.3 - 81.3 54.1
Avg 67.6 39.3 39 15.5 - 22.0 - - -
Min 53.9 23.5 14 4.0 - 8.1 - 56.3 40.6